Time;durP1;ratioP1;P1;durP2;ratioP2;P2;SDS_P1;SDS_P2;PMS_P1;PMS_P2;Temp;Humidity;BMP_temperature;BMP_pressure;BME280_temperature;BME280_humidity;BME280_pressure;Samples;Min_cycle;Max_cycle;Signal;HPM_P1;HPM_P2
2022/05/06 00:00:01;;;;;;;5.20;3.40;;;;;;;7.96;100.00;92834.94;4995679;28;20053;-76
2022/05/06 00:02:26;;;;;;;5.68;3.25;;;;;;;7.90;100.00;92819.31;4995394;28;20030;-77
2022/05/06 00:04:52;;;;;;;5.60;3.60;;;;;;;7.91;100.00;92833.13;5013138;28;20377;-77
2022/05/06 00:07:18;;;;;;;5.80;3.22;;;;;;;7.89;100.00;92838.59;5011353;28;20041;-78
2022/05/06 00:09:44;;;;;;;6.05;3.85;;;;;;;7.86;100.00;92833.13;5012554;28;20044;-77
2022/05/06 00:12:12;;;;;;;6.38;3.83;;;;;;;7.84;100.00;92835.97;4995115;28;20626;-78
2022/05/06 00:14:39;;;;;;;6.93;4.15;;;;;;;7.82;100.00;92830.25;4978073;28;20049;-77
2022/05/06 00:17:05;;;;;;;5.22;3.35;;;;;;;7.86;100.00;92833.13;4976252;28;20132;-77
2022/05/06 00:19:31;;;;;;;8.40;3.65;;;;;;;7.81;100.00;92823.44;5009089;28;20097;-77
2022/05/06 00:21:57;;;;;;;6.43;3.50;;;;;;;7.85;100.00;92829.72;4993292;28;20070;-78
2022/05/06 00:24:22;;;;;;;5.68;3.38;;;;;;;7.85;100.00;92826.34;5002384;28;20200;-77
2022/05/06 00:26:48;;;;;;;6.32;3.40;;;;;;;7.85;100.00;92828.94;4995425;28;20100;-77
2022/05/06 00:29:14;;;;;;;5.45;3.53;;;;;;;7.86;100.00;92828.69;4991742;28;20030;-78
2022/05/06 00:31:39;;;;;;;5.53;3.53;;;;;;;7.88;100.00;92817.97;4979593;28;20387;-78
2022/05/06 00:34:06;;;;;;;5.93;3.58;;;;;;;7.85;100.00;92818.50;4994790;28;20042;-78
2022/05/06 00:36:32;;;;;;;7.63;3.75;;;;;;;7.90;100.00;92827.13;4979660;28;20034;-78
2022/05/06 00:38:58;;;;;;;5.25;3.35;;;;;;;7.88;100.00;92810.97;4993731;28;20033;-78
2022/05/06 00:41:24;;;;;;;6.18;3.65;;;;;;;7.91;100.00;92810.44;4995474;28;20069;-78
2022/05/06 00:43:49;;;;;;;5.30;3.17;;;;;;;7.91;100.00;92809.66;4993962;28;20053;-78
2022/05/06 00:46:15;;;;;;;5.63;3.50;;;;;;;7.91;100.00;92810.44;5013704;28;20029;-78
2022/05/06 00:48:45;;;;;;;6.18;3.83;;;;;;;7.90;100.00;92814.09;5013200;28;20108;-78
2022/05/06 00:51:12;;;;;;;6.18;3.80;;;;;;;7.88;100.00;92823.19;4994147;28;20440;-78
2022/05/06 00:53:38;;;;;;;6.65;4.03;;;;;;;7.86;100.00;92813.03;4995764;28;20077;-78
2022/05/06 00:56:07;;;;;;;7.68;4.55;;;;;;;7.84;100.00;92819.56;4991264;28;20121;-78
2022/05/06 00:58:33;;;;;;;6.25;3.90;;;;;;;7.76;100.00;92822.69;5007620;28;20072;-78
2022/05/06 01:01:01;;;;;;;7.18;3.58;;;;;;;7.77;100.00;92817.22;4974939;28;20061;-78
2022/05/06 01:03:26;;;;;;;6.15;3.70;;;;;;;7.78;100.00;92820.59;4976343;28;20534;-78
2022/05/06 01:05:53;;;;;;;5.63;3.75;;;;;;;7.77;100.00;92814.63;4977919;28;20037;-78
2022/05/06 01:08:20;;;;;;;5.85;3.80;;;;;;;7.76;100.00;92807.03;5013351;28;20048;-78
2022/05/06 01:10:47;;;;;;;5.93;3.53;;;;;;;7.78;100.00;92795.31;4995968;28;20436;-77
2022/05/06 01:13:12;;;;;;;6.10;3.78;;;;;;;7.81;100.00;92799.22;4988537;28;20547;-78
2022/05/06 01:15:38;;;;;;;6.40;3.60;;;;;;;7.80;100.00;92813.31;4976721;28;20191;-78
2022/05/06 01:18:13;;;;;;;5.80;3.55;;;;;;;7.79;100.00;92796.88;4977207;28;20042;-78
2022/05/06 01:20:46;;;;;;;6.57;3.53;;;;;;;7.73;100.00;92779.69;4994033;28;20039;-78
2022/05/06 01:23:12;;;;;;;5.20;3.47;;;;;;;7.83;100.00;92791.94;5012188;28;20490;-78
2022/05/06 01:25:38;;;;;;;6.75;3.50;;;;;;;7.85;100.00;92795.06;4995016;28;20042;-79
2022/05/06 01:28:05;;;;;;;6.45;3.47;;;;;;;7.87;100.00;92792.97;5011940;28;20400;-79
2022/05/06 01:30:34;;;;;;;5.60;3.65;;;;;;;7.88;100.00;92795.31;4994234;28;20030;-79
2022/05/06 01:33:03;;;;;;;10.27;3.70;;;;;;;7.89;100.00;92789.06;4992891;28;20045;-79
2022/05/06 01:35:31;;;;;;;6.20;4.07;;;;;;;7.86;100.00;92796.63;4992351;28;20027;-79
2022/05/06 01:38:03;;;;;;;6.75;3.90;;;;;;;7.84;100.00;92785.69;5001102;28;20034;-79
2022/05/06 01:40:33;;;;;;;5.38;3.75;;;;;;;7.89;100.00;92794.25;4994988;28;20038;-79
2022/05/06 01:43:01;;;;;;;5.50;3.67;;;;;;;7.86;100.00;92786.22;4978344;28;20479;-78
2022/05/06 01:45:32;;;;;;;5.78;3.60;;;;;;;7.83;100.00;92778.88;4999074;28;20044;-78
2022/05/06 01:48:02;;;;;;;5.53;3.72;;;;;;;7.83;100.00;92791.94;5015832;28;20041;-79
2022/05/06 01:50:31;;;;;;;7.25;3.50;;;;;;;7.94;100.00;92790.88;4999324;28;20125;-78
2022/05/06 01:52:59;;;;;;;5.28;3.50;;;;;;;7.94;100.00;92798.69;5013959;28;20091;-78
2022/05/06 01:55:26;;;;;;;6.05;3.50;;;;;;;7.87;100.00;92792.97;4999014;28;20070;-78
2022/05/06 01:58:04;;;;;;;8.95;3.40;;;;;;;7.84;100.00;92789.06;4999263;28;20262;-78
2022/05/06 02:00:36;;;;;;;6.25;3.30;;;;;;;7.82;100.00;92785.94;4983984;28;20089;-79
2022/05/06 02:05:16;;;;;;;5.30;3.60;;;;;;;7.85;100.00;92784.63;4999337;28;20607;-78
2022/05/06 02:05:53;;;;;;;5.10;2.95;;;;;;;7.84;100.00;92790.91;4998409;28;20035;-79
2022/05/06 02:08:19;;;;;;;5.28;3.22;;;;;;;7.82;100.00;92792.97;4964314;28;20038;-78
2022/05/06 02:10:45;;;;;;;6.13;3.20;;;;;;;7.84;100.00;92790.91;4980067;28;20060;-79
2022/05/06 02:13:10;;;;;;;6.20;3.30;;;;;;;7.85;100.00;92784.63;4979859;28;20169;-79
2022/05/06 02:15:51;;;;;;;5.68;3.28;;;;;;;7.84;100.00;92793.50;4996835;28;20046;-78
2022/05/06 02:18:23;;;;;;;7.72;3.63;;;;;;;7.86;100.00;92786.97;4999580;28;20476;-78
2022/05/06 02:21:11;;;;;;;6.47;3.30;;;;;;;7.84;100.00;92789.06;5016997;28;20096;-78
2022/05/06 02:23:39;;;;;;;6.03;3.60;;;;;;;7.83;100.00;92786.72;5016141;28;20110;-78
2022/05/06 02:26:25;;;;;;;5.53;3.60;;;;;;;7.83;100.00;92784.09;5000879;28;20053;-78
2022/05/06 02:28:54;;;;;;;6.75;3.70;;;;;;;7.83;100.00;92787.47;4968372;28;20042;-78
2022/05/06 02:34:06;;;;;;;5.90;3.22;;;;;;;7.80;100.00;92782.03;4978486;28;20496;-78
2022/05/06 02:36:37;;;;;;;9.52;3.67;;;;;;;7.82;100.00;92791.16;4994464;28;20058;-78
2022/05/06 02:39:03;;;;;;;6.03;3.95;;;;;;;7.82;100.00;92785.94;4996795;28;20042;-78
2022/05/06 02:41:31;;;;;;;5.90;3.75;;;;;;;7.83;100.00;92784.09;4998263;28;20039;-78
2022/05/06 02:43:58;;;;;;;5.55;3.40;;;;;;;7.86;100.00;92781.78;4997994;28;20039;-78
2022/05/06 02:46:28;;;;;;;6.18;3.60;;;;;;;7.85;100.00;92784.63;4982023;28;20041;-79
2022/05/06 02:48:55;;;;;;;5.57;3.45;;;;;;;7.86;100.00;92789.59;5005433;28;20067;-78
2022/05/06 02:51:21;;;;;;;10.32;3.40;;;;;;;7.86;100.00;92781.00;5001619;28;20056;-79
2022/05/06 02:53:47;;;;;;;4.80;3.00;;;;;;;7.81;100.00;92773.16;5001552;28;20049;-78
2022/05/06 02:56:16;;;;;;;5.40;3.05;;;;;;;7.85;100.00;92779.41;4980295;28;20034;-78
2022/05/06 02:58:49;;;;;;;5.43;3.30;;;;;;;7.85;100.00;92776.81;5008209;28;20612;-78
2022/05/06 03:01:15;;;;;;;5.32;3.40;;;;;;;7.85;100.00;92779.41;4979417;28;20133;-78
2022/05/06 03:03:45;;;;;;;8.45;3.40;;;;;;;7.82;100.00;92770.28;4979257;28;20038;-78
2022/05/06 03:06:16;;;;;;;5.60;3.72;;;;;;;7.82;100.00;92777.34;4980339;28;20128;-78
2022/05/06 03:08:41;;;;;;;8.40;3.47;;;;;;;7.80;100.00;92776.81;5014562;28;20492;-78
2022/05/06 03:11:08;;;;;;;4.93;3.33;;;;;;;7.80;100.00;92779.44;4998654;28;20052;-77
2022/05/06 03:13:41;;;;;;;7.57;3.25;;;;;;;7.82;100.00;92779.94;4998392;28;20411;-78
2022/05/06 03:16:10;;;;;;;4.78;3.05;;;;;;;7.78;100.00;92776.28;4997968;28;20044;-78
2022/05/06 03:18:35;;;;;;;7.00;3.03;;;;;;;7.74;100.00;92778.63;4998065;28;20033;-78
2022/05/06 03:21:01;;;;;;;5.68;3.25;;;;;;;7.74;100.00;92775.25;4999025;28;20464;-78
2022/05/06 03:23:27;;;;;;;6.47;4.10;;;;;;;7.70;100.00;92770.56;5001610;28;20108;-78
2022/05/06 03:25:52;;;;;;;7.03;4.28;;;;;;;7.74;100.00;92777.84;4999152;28;20566;-78
2022/05/06 03:28:18;;;;;;;7.00;4.20;;;;;;;7.74;100.00;92768.22;4998517;28;20042;-78
2022/05/06 03:30:47;;;;;;;6.93;4.07;;;;;;;7.74;100.00;92770.03;4994556;28;20039;-78
2022/05/06 03:33:28;;;;;;;;;;;;;;;7.76;100.00;92773.16;4996646;28;20046;-78
2022/05/06 03:35:56;;;;;;;5.97;3.67;;;;;;;7.69;100.00;92763.00;4980280;28;19928;-78
2022/05/06 03:38:24;;;;;;;5.07;3.42;;;;;;;7.77;100.00;92772.91;4997621;28;20041;-78
2022/05/06 03:40:55;;;;;;;5.18;3.35;;;;;;;7.76;100.00;92771.34;4982929;28;20049;-78
2022/05/06 03:43:21;;;;;;;6.63;3.90;;;;;;;7.77;100.00;92774.72;4998743;28;20426;-78
2022/05/06 03:45:51;;;;;;;5.80;3.53;;;;;;;7.79;100.00;92775.25;4981846;28;20045;-78
2022/05/06 03:48:24;;;;;;;6.82;3.47;;;;;;;7.78;100.00;92771.84;5015222;28;20188;-77
2022/05/06 03:53:40;;;;;;;5.28;3.08;;;;;;;7.80;100.00;92766.41;4995597;28;20524;-78
2022/05/06 03:56:06;;;;;;;5.10;2.90;;;;;;;7.80;100.00;92767.16;4986229;28;20092;-78
2022/05/06 03:58:37;;;;;;;5.22;3.10;;;;;;;7.77;100.00;92762.50;4980324;28;20046;-77
2022/05/06 04:01:10;;;;;;;5.80;3.67;;;;;;;7.78;100.00;92763.25;4980219;28;20038;-78
2022/05/06 04:03:38;;;;;;;5.45;3.08;;;;;;;7.74;100.00;92762.22;4981365;28;20407;-78
2022/05/06 04:06:05;;;;;;;4.82;3.08;;;;;;;7.73;100.00;92756.22;4995905;28;20080;-78
2022/05/06 04:08:32;;;;;;;5.50;3.50;;;;;;;7.74;100.00;92762.22;4980104;28;20137;-78
2022/05/06 04:10:59;;;;;;;5.78;3.10;;;;;;;7.72;100.00;92765.88;4986406;28;20052;-78
2022/05/06 04:13:25;;;;;;;6.70;3.22;;;;;;;7.74;100.00;92770.03;4983594;28;20046;-79
2022/05/06 04:15:52;;;;;;;5.05;3.28;;;;;;;7.74;100.00;92772.63;4980360;28;20088;-80
2022/05/06 04:18:18;;;;;;;5.20;3.33;;;;;;;7.72;100.00;92770.28;4996966;28;20141;-80
2022/05/06 04:23:35;;;;;;;6.80;3.20;;;;;;;7.69;100.00;92770.81;4996749;28;20068;-78
2022/05/06 04:26:12;;;;;;;7.65;3.42;;;;;;;7.72;100.00;92776.31;4992612;28;20074;-79
2022/05/06 04:28:46;;;;;;;5.38;3.38;;;;;;;7.73;100.00;92779.69;4996419;28;20510;-80
2022/05/06 04:31:12;;;;;;;5.18;3.22;;;;;;;7.74;100.00;92783.84;4996089;28;20038;-80
2022/05/06 04:33:41;;;;;;;4.55;3.05;;;;;;;7.71;100.00;92777.31;4991183;28;20065;-81
2022/05/06 04:36:13;;;;;;;;;;;;;;;7.76;100.00;92780.97;4996448;28;20041;-81
2022/05/06 04:38:43;;;;;;;6.55;3.00;;;;;;;7.77;100.00;92782.53;4996711;28;20371;-77
2022/05/06 04:41:09;;;;;;;6.00;3.08;;;;;;;7.80;100.00;92776.81;4978979;28;20036;-82
2022/05/06 04:43:34;;;;;;;4.85;2.95;;;;;;;7.83;100.00;92781.50;5018390;28;20034;-82
2022/05/06 04:46:00;;;;;;;4.70;3.10;;;;;;;7.80;100.00;92776.81;4999527;28;20479;-83
2022/05/06 04:48:29;;;;;;;4.47;2.67;;;;;;;7.85;100.00;92784.63;4998113;28;20049;-82
2022/05/06 04:50:57;;;;;;;5.65;2.92;;;;;;;7.86;100.00;92786.22;4997067;28;20033;-82
2022/05/06 04:53:23;;;;;;;5.05;2.92;;;;;;;7.83;100.00;92779.66;5000935;28;20113;-81
2022/05/06 04:55:51;;;;;;;5.47;3.40;;;;;;;7.80;100.00;92775.00;4983624;28;20091;-80
2022/05/06 04:58:24;;;;;;;4.65;2.80;;;;;;;7.87;100.00;92787.75;4996270;28;20174;-81
2022/05/06 05:00:50;;;;;;;4.97;3.08;;;;;;;7.87;100.00;92782.53;4990236;28;20094;-82
2022/05/06 05:03:16;;;;;;;5.18;3.05;;;;;;;7.89;100.00;92780.47;4983055;28;20040;-81
2022/05/06 05:05:43;;;;;;;5.63;3.20;;;;;;;7.91;100.00;92779.16;4999243;28;20149;-80
2022/05/06 05:08:09;;;;;;;4.22;2.83;;;;;;;7.92;100.00;92788.56;4979954;28;20069;-80
2022/05/06 05:10:40;;;;;;;5.00;3.10;;;;;;;8.05;100.00;92791.66;4994553;28;20124;-81
2022/05/06 05:13:06;;;;;;;7.38;3.25;;;;;;;8.02;100.00;92792.97;5000694;28;20386;-84
2022/05/06 05:15:34;;;;;;;5.20;3.22;;;;;;;7.97;100.00;92792.97;5002121;28;20057;-82
2022/05/06 05:18:00;;;;;;;7.20;3.35;;;;;;;8.02;100.00;92800.78;4999801;28;20040;-83
2022/05/06 05:20:25;;;;;;;5.53;3.13;;;;;;;8.05;100.00;92795.03;4984675;28;20053;-78
2022/05/06 05:22:54;;;;;;;8.77;3.05;;;;;;;8.08;100.00;92799.75;5000223;28;20046;-79
2022/05/06 05:25:21;;;;;;;5.57;3.60;;;;;;;8.11;100.00;92796.59;5002348;28;20038;-80
2022/05/06 05:27:47;;;;;;;5.53;3.40;;;;;;;8.14;100.00;92801.28;4999904;28;20560;-79
2022/05/06 05:30:23;;;;;;;5.10;3.20;;;;;;;8.17;100.00;92796.59;4967299;28;20097;-80
2022/05/06 05:32:49;;;;;;;5.78;2.95;;;;;;;8.20;100.00;92806.50;4976114;28;20508;-81
2022/05/06 05:35:15;;;;;;;6.30;3.08;;;;;;;8.24;100.00;92803.13;4960335;28;20039;-80
2022/05/06 05:37:50;;;;;;;5.10;3.15;;;;;;;8.27;100.00;92802.56;4976274;28;20130;-80
2022/05/06 05:40:16;;;;;;;4.95;2.75;;;;;;;8.27;100.00;92792.16;4961642;28;20104;-80
2022/05/06 05:42:41;;;;;;;5.20;3.30;;;;;;;8.37;100.00;92801.78;4944777;28;20446;-80
2022/05/06 05:50:43;;;;;;;4.80;2.72;;;;;;;8.52;100.00;92808.81;4964455;28;20077;-81
2022/05/06 05:53:11;;;;;;;4.78;2.95;;;;;;;8.51;100.00;92795.00;4976814;28;20053;-80
2022/05/06 05:55:37;;;;;;;4.35;2.67;;;;;;;8.64;100.00;92800.69;4976183;28;20455;-80
2022/05/06 05:58:07;;;;;;;4.07;2.60;;;;;;;8.70;100.00;92804.84;4977349;28;20038;-80
2022/05/06 06:00:36;;;;;;;9.52;3.90;;;;;;;8.72;100.00;92807.97;4977833;28;20398;-81
2022/05/06 06:03:02;;;;;;;6.25;3.25;;;;;;;8.77;100.00;92805.34;4976471;28;20031;-81
2022/05/06 06:05:31;;;;;;;9.68;3.35;;;;;;;8.80;100.00;92810.03;4961355;28;20170;-81
2022/05/06 06:07:58;;;;;;;7.18;3.10;;;;;;;8.87;100.00;92810.53;4976480;28;20073;-81
2022/05/06 06:10:24;;;;;;;5.03;2.90;;;;;;;8.91;100.00;92808.94;4961105;28;20042;-79
2022/05/06 06:12:49;;;;;;;4.47;2.80;;;;;;;8.94;100.00;92803.19;4981481;28;20039;-81
2022/05/06 06:15:16;;;;;;;4.80;2.78;;;;;;;9.03;100.00;92807.84;4993070;28;20050;-80
2022/05/06 06:17:43;;;;;;;5.28;2.70;;;;;;;9.07;100.00;92804.44;4996917;28;20046;-81
2022/05/06 06:20:10;;;;;;;4.18;2.58;;;;;;;9.10;100.00;92808.38;4980327;28;20046;-81
2022/05/06 06:22:43;;;;;;;4.60;2.67;;;;;;;9.18;100.00;92807.78;5001742;28;20051;-80
2022/05/06 06:25:10;;;;;;;3.90;2.20;;;;;;;9.28;100.00;92812.19;4989555;28;20510;-79
2022/05/06 06:27:37;;;;;;;4.10;2.35;;;;;;;9.39;100.00;92811.09;4967943;28;20492;-80
2022/05/06 06:30:10;;;;;;;;;;;;;;;9.37;100.00;92818.41;4968781;28;20046;-79
2022/05/06 06:32:36;;;;;;;5.10;2.15;;;;;;;9.37;100.00;92813.97;4982756;28;19921;-81
2022/05/06 06:35:03;;;;;;;4.35;2.30;;;;;;;9.33;100.00;92806.94;4984364;28;20396;-80
2022/05/06 06:37:38;;;;;;;4.07;2.50;;;;;;;9.38;100.00;92810.28;4968503;28;20138;-80
2022/05/06 06:40:06;;;;;;;3.60;2.10;;;;;;;9.48;98.60;92808.66;4967412;28;20065;-78
2022/05/06 06:42:31;;;;;;;258.20;8.20;;;;;;;9.55;100.00;92819.63;4983148;28;20034;-80
2022/05/06 06:45:07;;;;;;;5.60;3.30;;;;;;;9.49;100.00;92815.47;4983086;28;20034;-80
2022/05/06 06:47:53;;;;;;;4.95;2.97;;;;;;;9.52;100.00;92818.28;4961591;28;20046;-80
2022/05/06 06:50:44;;;;;;;4.32;2.40;;;;;;;9.56;99.90;92819.31;4983311;28;20114;-79
2022/05/06 06:53:17;;;;;;;4.75;2.45;;;;;;;9.57;100.00;92818.28;4984535;28;20073;-80
2022/05/06 06:55:43;;;;;;;3.60;2.10;;;;;;;9.53;100.00;92811.25;5000592;28;20046;-78
2022/05/06 06:58:08;;;;;;;4.28;2.40;;;;;;;9.48;100.00;92814.69;4985336;28;20037;-79
2022/05/06 07:00:34;;;;;;;4.35;2.58;;;;;;;9.63;100.00;92813.78;4982817;28;20045;-79
2022/05/06 07:03:00;;;;;;;5.32;2.38;;;;;;;9.75;100.00;92813.47;4999995;28;20046;-80
2022/05/06 07:05:25;;;;;;;4.90;2.50;;;;;;;9.80;100.00;92819.44;4983321;28;20073;-79
2022/05/06 07:11:52;;;;;;;4.10;2.58;;;;;;;9.95;100.00;92812.50;4985831;28;20042;-80
2022/05/06 07:13:24;;;;;;;7.40;2.70;;;;;;;10.03;100.00;92804.09;4986289;28;20042;-81
2022/05/06 07:15:49;;;;;;;45.22;4.72;;;;;;;10.06;100.00;92806.16;5001216;28;20065;-82
2022/05/06 07:18:16;;;;;;;252.75;7.78;;;;;;;10.03;100.00;92813.78;5001550;28;20050;-81
2022/05/06 07:20:42;;;;;;;47.63;6.40;;;;;;;10.01;100.00;92814.81;5003587;28;20065;-81
2022/05/06 07:23:09;;;;;;;231.68;9.13;;;;;;;10.00;100.00;92800.19;4983434;28;20058;-81
2022/05/06 07:25:35;;;;;;;73.38;5.72;;;;;;;10.06;100.00;92824.47;4983839;28;20061;-81
2022/05/06 07:28:00;;;;;;;239.15;7.30;;;;;;;9.99;100.00;92816.16;4982858;28;20525;-81
2022/05/06 07:30:26;;;;;;;608.42;14.73;;;;;;;9.92;100.00;92813.84;5001079;28;20081;-79
2022/05/06 07:32:52;;;;;;;151.70;6.82;;;;;;;9.97;100.00;92820.88;4983192;28;20026;-81
2022/05/06 07:35:17;;;;;;;29.95;5.38;;;;;;;10.00;100.00;92825.56;5000013;28;20054;-80
2022/05/06 07:37:43;;;;;;;6.85;3.70;;;;;;;9.90;100.00;92817.78;4982546;28;20048;-80
2022/05/06 07:40:10;;;;;;;4.95;3.33;;;;;;;9.96;100.00;92819.31;4984119;28;20065;-80
2022/05/06 07:42:37;;;;;;;5.72;3.47;;;;;;;9.92;100.00;92828.75;4999893;28;20041;-80
2022/05/06 07:45:04;;;;;;;6.38;3.55;;;;;;;9.95;100.00;92820.38;4982630;28;20034;-80
2022/05/06 07:47:32;;;;;;;7.50;2.60;;;;;;;9.96;98.73;92827.16;5000018;28;20064;-80
2022/05/06 07:49:57;;;;;;;5.13;2.60;;;;;;;9.98;99.14;92825.06;5000614;28;20047;-80
2022/05/06 07:52:23;;;;;;;3.33;1.98;;;;;;;9.87;95.27;92832.19;4981728;28;20088;-79
2022/05/06 07:54:49;;;;;;;4.53;2.60;;;;;;;9.88;97.88;92838.19;4999595;28;20053;-79
2022/05/06 07:57:14;;;;;;;3.70;2.50;;;;;;;9.84;95.47;92831.94;4982246;28;20042;-80
2022/05/06 07:59:40;;;;;;;4.57;2.60;;;;;;;10.06;93.61;92847.22;4966066;28;20030;-79
2022/05/06 08:04:50;;;;;;;3.90;2.20;;;;;;;10.08;94.17;92840.66;4981909;28;20042;-80
2022/05/06 08:07:17;;;;;;;4.25;2.58;;;;;;;10.08;94.62;92851.13;4965332;28;20050;-82
2022/05/06 08:09:43;;;;;;;6.32;2.30;;;;;;;10.29;93.76;92848.38;4980749;28;20042;-80
2022/05/06 08:12:10;;;;;;;4.22;2.58;;;;;;;10.34;92.86;92853.59;5006541;28;20266;-81
2022/05/06 08:14:36;;;;;;;4.72;2.40;;;;;;;10.25;91.27;92855.97;5000920;28;20560;-81
2022/05/06 08:17:03;;;;;;;3.95;2.30;;;;;;;10.38;90.96;92855.38;4965191;28;20512;-81
2022/05/06 08:19:29;;;;;;;4.05;2.40;;;;;;;10.37;93.39;92853.03;4998506;28;20049;-79
2022/05/06 08:21:55;;;;;;;4.30;2.50;;;;;;;10.52;91.97;92854.72;5008893;28;20038;-82
2022/05/06 08:24:22;;;;;;;5.70;2.53;;;;;;;10.70;91.77;92863.72;4996292;28;20097;-80
2022/05/06 08:26:49;;;;;;;4.70;2.28;;;;;;;10.57;90.01;92855.44;4997462;28;20045;-80
2022/05/06 08:29:14;;;;;;;4.55;2.08;;;;;;;10.56;86.96;92872.22;4997205;28;20081;-80
2022/05/06 08:31:41;;;;;;;3.70;2.38;;;;;;;10.51;91.81;92872.25;4980620;28;20034;-79
2022/05/06 08:34:12;;;;;;;3.72;2.15;;;;;;;10.53;90.70;92870.13;5017489;28;20067;-80
2022/05/06 08:36:39;;;;;;;7.68;2.60;;;;;;;10.52;89.50;92871.22;5017992;28;20080;-79
2022/05/06 08:39:07;;;;;;;3.97;2.03;;;;;;;10.49;90.65;92879.63;4984087;28;20033;-79
2022/05/06 08:41:32;;;;;;;3.15;1.95;;;;;;;10.63;88.89;92879.75;4983999;28;20475;-80
2022/05/06 08:50:50;;;;;;;3.28;1.95;;;;;;;10.60;90.67;92870.63;5016053;28;20052;-80
2022/05/06 08:52:36;;;;;;;3.40;2.00;;;;;;;10.71;87.09;92871.28;5002734;28;20486;-79
2022/05/06 08:55:04;;;;;;;6.50;2.72;;;;;;;10.96;92.32;92880.72;5012191;28;20038;-80
2022/05/06 08:57:31;;;;;;;4.32;2.80;;;;;;;10.87;91.73;92879.00;4998397;28;20045;-81
2022/05/06 08:59:57;;;;;;;6.95;3.00;;;;;;;10.79;91.51;92878.53;4998472;28;20073;-81
2022/05/06 09:02:22;;;;;;;4.80;2.90;;;;;;;10.68;93.54;92871.84;4966068;28;20050;-81
2022/05/06 09:04:48;;;;;;;4.50;3.15;;;;;;;10.59;94.74;92865.66;4991222;28;20077;-80
2022/05/06 09:07:23;;;;;;;8.82;3.83;;;;;;;10.61;96.50;92877.41;5002769;28;20088;-81
2022/05/06 09:10:10;;;;;;;6.38;4.22;;;;;;;10.59;98.90;92876.91;4983339;28;20038;-81
2022/05/06 09:12:42;;;;;;;5.85;3.75;;;;;;;10.58;100.00;92877.16;4983330;28;20034;-80
2022/05/06 09:17:55;;;;;;;7.03;4.20;;;;;;;10.40;98.06;92876.81;5006238;28;20281;-82
2022/05/06 09:20:21;;;;;;;5.20;3.30;;;;;;;10.30;98.80;92884.75;4999567;28;20030;-81
2022/05/06 09:22:50;;;;;;;7.70;3.83;;;;;;;10.30;98.53;92882.13;5003140;28;20057;-82
2022/05/06 09:25:51;;;;;;;4.55;2.95;;;;;;;10.34;96.90;92892.84;5012927;28;20064;-81
2022/05/06 09:28:31;;;;;;;3.85;2.30;;;;;;;10.38;95.11;92885.97;5002672;28;20436;-81
2022/05/06 09:31:07;;;;;;;5.57;2.20;;;;;;;10.38;93.66;92904.28;4966211;28;20065;-81
2022/05/06 09:33:35;;;;;;;8.27;4.03;;;;;;;10.55;95.38;92883.75;4998550;28;20061;-80
2022/05/06 09:36:24;;;;;;;5.85;3.72;;;;;;;10.90;96.66;92889.72;4996980;28;20030;-82
2022/05/06 09:39:01;;;;;;;6.55;3.63;;;;;;;10.85;96.64;92894.97;5005034;28;20422;-81
2022/05/06 09:41:27;;;;;;;6.30;3.30;;;;;;;10.79;94.70;92885.63;5017699;28;20132;-81
2022/05/06 09:44:00;;;;;;;5.55;3.88;;;;;;;10.81;97.20;92889.53;5000466;28;20456;-81
2022/05/06 09:46:26;;;;;;;10.82;3.65;;;;;;;10.90;97.80;92894.94;5020086;28;20116;-80
2022/05/06 09:48:59;;;;;;;5.20;3.45;;;;;;;11.02;95.13;92895.34;5019592;28;20802;-81
2022/05/06 09:51:29;;;;;;;6.93;3.67;;;;;;;10.92;94.65;92894.66;5001548;28;20097;-81
2022/05/06 09:53:56;;;;;;;5.43;3.80;;;;;;;11.06;96.24;92892.94;5002788;28;20046;-81
2022/05/06 09:56:22;;;;;;;4.90;3.35;;;;;;;11.02;96.16;92897.94;5002114;28;20026;-80
2022/05/06 09:58:51;;;;;;;5.35;3.65;;;;;;;11.08;96.48;92895.28;5001069;28;20104;-81
2022/05/06 10:01:18;;;;;;;8.25;3.70;;;;;;;11.07;95.44;92898.97;5019679;28;20029;-80
2022/05/06 10:03:44;;;;;;;10.18;4.25;;;;;;;10.97;94.91;92902.47;5020832;28;20525;-81
2022/05/06 10:06:10;;;;;;;5.80;3.50;;;;;;;10.93;95.37;92898.84;5021195;28;20030;-79
2022/05/06 10:08:49;;;;;;;5.93;3.67;;;;;;;11.01;95.64;92906.88;5021769;28;20037;-83
2022/05/06 10:11:21;;;;;;;6.30;2.95;;;;;;;11.14;96.66;92902.78;5017011;28;20462;-80
2022/05/06 10:13:47;;;;;;;3.75;2.30;;;;;;;11.39;91.73;92899.13;5016379;28;20092;-77
2022/05/06 10:16:13;;;;;;;7.05;4.35;;;;;;;11.58;93.86;92899.16;5014764;28;20033;-77
2022/05/06 10:18:41;;;;;;;6.00;2.53;;;;;;;11.74;93.18;92897.09;5016206;28;20052;-77
2022/05/06 10:21:08;;;;;;;4.13;1.90;;;;;;;11.83;90.02;92899.88;5015437;28;20042;-76
2022/05/06 10:23:54;;;;;;;6.03;3.53;;;;;;;11.85;93.22;92909.03;5010624;28;20072;-76
2022/05/06 10:26:42;;;;;;;2.83;1.60;;;;;;;11.91;86.48;92901.91;5014214;28;20061;-76
2022/05/06 10:32:25;;;;;;;4.53;2.90;;;;;;;12.04;89.85;92898.56;5010726;28;20109;-76
2022/05/06 10:35:04;;;;;;;3.05;1.77;;;;;;;12.12;87.94;92902.38;5002412;28;20496;-76
2022/05/06 10:37:40;;;;;;;6.30;3.60;;;;;;;12.16;89.91;92907.84;4993382;28;20042;-76
2022/05/06 10:40:23;;;;;;;4.85;3.17;;;;;;;12.24;90.60;92905.34;4995218;28;20034;-76
2022/05/06 10:42:50;;;;;;;5.72;3.58;;;;;;;11.94;92.69;92911.06;4996104;28;20048;-76
2022/05/06 10:45:23;;;;;;;6.53;3.75;;;;;;;11.61;94.92;92909.06;4995724;28;20440;-76
2022/05/06 10:47:49;;;;;;;4.82;3.28;;;;;;;11.64;94.96;92905.09;5007496;28;20048;-76
2022/05/06 10:50:16;;;;;;;4.88;2.13;;;;;;;11.30;91.01;92906.03;5014067;28;20092;-76
2022/05/06 10:52:43;;;;;;;9.48;4.22;;;;;;;11.61;96.83;92916.16;5014110;28;20395;-76
2022/05/06 10:55:12;;;;;;;3.17;1.98;;;;;;;11.84;90.74;92911.91;5013798;28;20511;-76
2022/05/06 10:57:46;;;;;;;4.70;2.80;;;;;;;11.76;92.82;92910.72;5013827;28;20105;-76
2022/05/06 11:00:12;;;;;;;5.40;3.20;;;;;;;11.41;92.56;92907.47;5013854;28;20112;-76
2022/05/06 11:02:40;;;;;;;3.50;2.00;;;;;;;11.54;93.59;92913.09;5011026;28;20109;-76
2022/05/06 11:05:07;;;;;;;3.13;1.80;;;;;;;11.70;91.17;92911.06;5004681;28;20128;-76
2022/05/06 11:07:36;;;;;;;4.50;2.30;;;;;;;11.84;89.85;92915.34;5013363;28;20100;-76
2022/05/06 11:10:13;;;;;;;4.10;2.17;;;;;;;12.04;91.15;92911.66;5029077;28;20467;-76
2022/05/06 11:12:45;;;;;;;3.42;2.15;;;;;;;11.77;90.66;92912.28;5013595;28;20076;-76
2022/05/06 11:15:24;;;;;;;3.63;1.90;;;;;;;11.75;88.49;92917.00;5013417;28;20029;-75
2022/05/06 11:17:54;;;;;;;5.60;2.63;;;;;;;11.85;92.47;92909.03;5012228;28;20038;-75
2022/05/06 11:20:33;;;;;;;7.10;2.40;;;;;;;11.65;88.52;92914.53;5009425;28;20034;-76
2022/05/06 11:23:08;;;;;;;4.32;2.15;;;;;;;11.74;88.44;92912.84;5011748;28;20037;-75
2022/05/06 11:25:34;;;;;;;5.88;2.00;;;;;;;11.77;86.83;92912.28;5023991;28;20452;-76
2022/05/06 11:28:02;;;;;;;3.67;2.10;;;;;;;11.84;86.53;92915.34;5000201;28;20129;-76
2022/05/06 11:30:29;;;;;;;3.40;1.45;;;;;;;11.94;87.81;92900.56;5011628;28;20180;-75
2022/05/06 11:32:59;;;;;;;3.65;1.85;;;;;;;11.77;85.47;92914.91;4995756;28;20454;-75
2022/05/06 11:35:28;;;;;;;3.85;2.10;;;;;;;11.83;87.50;92908.53;5013204;28;20499;-75
2022/05/06 11:37:55;;;;;;;3.85;1.95;;;;;;;11.87;87.72;92906.94;5011663;28;20502;-75
2022/05/06 11:40:34;;;;;;;2.50;1.60;;;;;;;11.83;87.40;92905.91;5001228;28;20404;-75
2022/05/06 11:43:04;;;;;;;3.50;2.10;;;;;;;11.83;85.86;92913.78;4993240;28;20042;-75
2022/05/06 11:48:18;;;;;;;3.85;2.08;;;;;;;11.95;87.73;92913.38;5012144;28;20050;-75
2022/05/06 11:50:46;;;;;;;3.58;2.10;;;;;;;11.99;87.86;92900.47;5011763;28;20514;-75
2022/05/06 11:53:15;;;;;;;4.80;2.22;;;;;;;11.97;87.47;92907.84;5011381;28;20034;-75
2022/05/06 11:55:43;;;;;;;5.13;2.70;;;;;;;11.83;89.10;92903.28;5010043;28;20062;-75
2022/05/06 11:58:16;;;;;;;4.05;2.30;;;;;;;11.91;90.09;92911.59;5006937;28;20125;-75
2022/05/06 12:00:43;;;;;;;5.82;2.50;;;;;;;11.95;88.64;92908.13;5011739;28;20068;-75
2022/05/06 12:03:11;;;;;;;5.22;2.92;;;;;;;11.96;91.12;92903.69;5010652;28;20072;-75
2022/05/06 12:05:38;;;;;;;7.30;2.80;;;;;;;11.93;89.70;92904.22;5011155;28;20014;-75
2022/05/06 12:08:04;;;;;;;4.35;2.60;;;;;;;11.86;90.96;92909.78;5009342;28;20042;-75
2022/05/06 12:10:32;;;;;;;6.32;3.00;;;;;;;11.75;96.45;92903.91;5011415;28;20045;-75
2022/05/06 12:13:00;;;;;;;5.72;3.40;;;;;;;11.68;95.91;92911.34;5008360;28;20037;-75
2022/05/06 12:15:30;;;;;;;5.32;3.20;;;;;;;11.59;96.24;92899.94;5012097;28;20084;-75